Time;durP1;ratioP1;P1;durP2;ratioP2;P2;SDS_P1;SDS_P2;PMS_P1;PMS_P2;Temp;Humidity;BMP_temperature;BMP_pressure;BME280_temperature;BME280_humidity;BME280_pressure;Samples;Min_cycle;Max_cycle;Signal;HPM_P1;HPM_P2
2022/11/24 00:00:16;;;;;;;10.10;8.35;;;;;;;8.22;70.20;93849.44;5018259;28;20198;-71
2022/11/24 00:02:44;;;;;;;9.45;7.30;;;;;;;8.25;69.85;93848.69;5018198;28;20384;-71
2022/11/24 00:05:11;;;;;;;12.50;11.23;;;;;;;8.21;69.34;93850.59;5018433;28;20217;-71
2022/11/24 00:07:37;;;;;;;17.42;15.15;;;;;;;7.95;69.16;93843.06;5018076;28;20205;-71
2022/11/24 00:10:05;;;;;;;12.80;11.30;;;;;;;7.83;69.79;93852.28;5018496;28;20232;-71
2022/11/24 00:12:31;;;;;;;12.48;10.82;;;;;;;7.77;70.21;93855.69;5018090;28;20198;-71
2022/11/24 00:14:58;;;;;;;7.75;6.95;;;;;;;7.80;70.45;93853.00;5018226;28;20252;-71
2022/11/24 00:17:25;;;;;;;10.75;9.65;;;;;;;7.85;70.30;93851.94;5017592;28;20207;-71
2022/11/24 00:19:53;;;;;;;9.85;8.85;;;;;;;7.83;70.14;93867.97;5015016;28;20234;-71
2022/11/24 00:22:20;;;;;;;6.43;5.82;;;;;;;7.87;70.15;93847.66;5014868;28;20199;-71
2022/11/24 00:24:46;;;;;;;6.97;5.65;;;;;;;7.97;69.57;93855.28;5015633;28;20183;-71
2022/11/24 00:27:13;;;;;;;5.82;5.00;;;;;;;8.04;69.49;93864.81;5014696;28;20195;-71
2022/11/24 00:29:40;;;;;;;6.22;5.50;;;;;;;8.08;69.21;93860.97;5014485;28;20238;-71
2022/11/24 00:32:07;;;;;;;6.53;5.10;;;;;;;8.13;68.77;93860.66;5014911;28;20199;-71
2022/11/24 00:34:33;;;;;;;6.68;4.90;;;;;;;8.17;68.64;93860.72;5014501;28;20209;-71
2022/11/24 00:37:02;;;;;;;6.10;5.50;;;;;;;8.13;68.46;93866.16;5014538;28;20265;-71
2022/11/24 00:39:28;;;;;;;8.07;5.97;;;;;;;8.07;68.95;93867.63;5015360;28;20195;-70
2022/11/24 00:41:55;;;;;;;7.90;6.22;;;;;;;7.95;69.12;93862.28;5015388;28;20196;-70
2022/11/24 00:44:22;;;;;;;7.78;6.97;;;;;;;7.86;69.16;93869.97;5014412;28;20187;-70
2022/11/24 00:46:48;;;;;;;7.32;6.63;;;;;;;7.80;69.15;93869.47;5014282;28;20215;-71
2022/11/24 00:49:15;;;;;;;7.65;6.78;;;;;;;7.77;69.70;93880.38;5014110;28;20231;-70
2022/11/24 00:51:42;;;;;;;7.13;6.43;;;;;;;7.69;70.15;93885.75;5014282;28;20190;-70
2022/11/24 00:54:10;;;;;;;7.53;6.93;;;;;;;7.61;70.05;93875.00;5014307;28;20546;-70
2022/11/24 00:56:37;;;;;;;7.65;6.18;;;;;;;7.51;70.17;93859.13;5014460;28;20210;-70
2022/11/24 00:59:04;;;;;;;8.02;6.35;;;;;;;7.46;70.43;93877.47;5014367;28;20211;-71
2022/11/24 01:01:31;;;;;;;6.10;5.43;;;;;;;7.48;70.35;93877.91;5013990;28;20195;-70
2022/11/24 01:04:01;;;;;;;8.40;5.97;;;;;;;7.57;70.55;93858.47;5016369;28;20211;-71
2022/11/24 01:06:28;;;;;;;7.80;5.95;;;;;;;7.58;70.94;93878.47;5018537;28;20192;-71
2022/11/24 01:08:56;;;;;;;7.65;5.40;;;;;;;7.58;70.44;93881.22;5018970;28;20200;-71
2022/11/24 01:11:26;;;;;;;4.93;4.43;;;;;;;7.68;70.73;93861.41;5019355;28;20241;-71
2022/11/24 01:13:56;;;;;;;5.43;4.93;;;;;;;7.75;70.01;93863.50;5017999;28;20257;-70
2022/11/24 01:16:24;;;;;;;4.97;4.28;;;;;;;7.74;70.27;93864.69;5017879;28;20206;-72
2022/11/24 01:18:51;;;;;;;5.25;3.95;;;;;;;7.70;70.10;93870.09;5018276;28;20191;-71
2022/11/24 01:21:19;;;;;;;6.00;4.68;;;;;;;7.79;70.25;93886.31;5017627;28;20234;-71
2022/11/24 01:23:46;;;;;;;5.60;3.92;;;;;;;7.86;69.92;93886.47;5018852;28;20246;-71
2022/11/24 01:26:14;;;;;;;4.30;3.90;;;;;;;7.94;69.72;93882.69;5017724;28;20265;-71
2022/11/24 01:28:43;;;;;;;5.00;3.75;;;;;;;7.96;69.62;93880.38;5034224;28;20233;-71
2022/11/24 01:31:10;;;;;;;5.55;4.20;;;;;;;8.03;69.66;93879.72;5035090;28;20219;-71
2022/11/24 01:33:37;;;;;;;7.60;5.03;;;;;;;7.97;69.86;93884.69;5019262;28;20187;-71
2022/11/24 01:36:05;;;;;;;5.28;4.75;;;;;;;7.92;69.90;93879.53;5019488;28;20257;-71
2022/11/24 01:38:32;;;;;;;4.95;4.47;;;;;;;7.87;70.17;93880.59;5018173;28;20203;-71
2022/11/24 01:41:04;;;;;;;4.72;4.22;;;;;;;7.82;70.42;93882.84;5034413;28;20195;-71
2022/11/24 01:43:31;;;;;;;6.55;4.95;;;;;;;7.77;70.43;93880.38;5018537;28;20202;-71
2022/11/24 01:46:03;;;;;;;6.28;4.70;;;;;;;7.63;70.33;93878.19;5017857;28;20211;-71
2022/11/24 01:48:32;;;;;;;7.65;6.43;;;;;;;7.52;70.69;93877.19;5017646;28;20195;-70
2022/11/24 01:51:05;;;;;;;10.55;7.80;;;;;;;7.56;71.53;93872.56;5018539;28;20211;-70
2022/11/24 01:53:33;;;;;;;9.38;8.02;;;;;;;7.60;71.46;93889.88;5017366;28;20210;-71
2022/11/24 01:56:00;;;;;;;8.48;6.25;;;;;;;7.67;70.97;93868.88;5018270;28;20195;-70
2022/11/24 01:58:28;;;;;;;8.65;6.03;;;;;;;7.74;71.00;93870.94;5018379;28;20214;-70
2022/11/24 02:00:56;;;;;;;8.20;7.20;;;;;;;7.75;70.91;93871.75;5017121;28;20207;-70
2022/11/24 02:03:27;;;;;;;7.50;5.93;;;;;;;7.78;70.65;93874.56;5017171;28;20192;-70
2022/11/24 02:05:58;;;;;;;7.03;5.72;;;;;;;7.84;70.71;93884.09;5017008;28;20206;-71
2022/11/24 02:08:29;;;;;;;6.00;4.97;;;;;;;7.89;70.48;93878.28;5017297;28;20219;-71
2022/11/24 02:10:55;;;;;;;6.75;5.30;;;;;;;7.91;70.87;93886.16;5016675;28;20215;-71
2022/11/24 02:13:23;;;;;;;5.28;4.75;;;;;;;7.94;70.51;93875.22;5016862;28;20187;-71
2022/11/24 02:15:49;;;;;;;6.68;5.05;;;;;;;7.93;70.49;93883.84;5016120;28;20199;-71
2022/11/24 02:18:16;;;;;;;6.95;5.53;;;;;;;7.88;70.76;93890.44;5017659;28;20191;-71
2022/11/24 02:20:44;;;;;;;5.97;5.07;;;;;;;7.89;70.85;93894.75;5029830;28;20307;-72
2022/11/24 02:23:17;;;;;;;5.88;5.25;;;;;;;7.93;71.11;93892.06;5037459;28;20638;-71
2022/11/24 02:25:52;;;;;;;7.03;5.47;;;;;;;7.97;70.76;93888.22;5019878;28;20206;-71
2022/11/24 02:28:22;;;;;;;6.30;5.00;;;;;;;8.03;70.89;93896.97;5037284;28;20186;-71
2022/11/24 02:30:49;;;;;;;7.18;5.55;;;;;;;8.05;70.80;93891.91;5037227;28;20256;-71
2022/11/24 02:33:15;;;;;;;5.68;5.18;;;;;;;8.08;70.90;93885.69;5020024;28;20202;-71
2022/11/24 02:35:42;;;;;;;6.50;5.10;;;;;;;8.07;70.64;93891.53;5019506;28;20611;-71
2022/11/24 02:38:12;;;;;;;6.68;5.72;;;;;;;8.06;71.26;93892.69;5037171;28;20190;-71
2022/11/24 02:40:40;;;;;;;6.13;5.20;;;;;;;8.05;71.27;93891.91;5019670;28;20194;-71
2022/11/24 02:43:10;;;;;;;6.70;5.10;;;;;;;8.06;70.82;93890.75;5036819;28;20607;-71
2022/11/24 02:45:38;;;;;;;7.00;5.82;;;;;;;8.06;71.13;93898.19;5019183;28;20264;-71
2022/11/24 02:48:06;;;;;;;6.32;5.30;;;;;;;8.04;70.89;93881.28;5019687;28;20198;-71
2022/11/24 02:50:33;;;;;;;7.15;5.70;;;;;;;8.04;70.90;93895.81;5019309;28;20214;-71
2022/11/24 02:53:00;;;;;;;7.22;6.53;;;;;;;8.02;70.50;93894.56;5019754;28;20198;-71
2022/11/24 02:55:26;;;;;;;9.63;7.10;;;;;;;8.01;70.64;93896.53;5019178;28;20236;-71
2022/11/24 02:57:53;;;;;;;10.70;8.68;;;;;;;7.97;70.48;93881.94;5019312;28;20198;-71
2022/11/24 03:00:20;;;;;;;9.13;8.20;;;;;;;7.96;70.60;93894.88;5035656;28;20572;-71
2022/11/24 03:02:49;;;;;;;10.77;9.68;;;;;;;7.95;70.54;93901.53;5019504;28;20183;-71
2022/11/24 03:05:15;;;;;;;11.40;10.20;;;;;;;7.93;70.54;93898.34;5036813;28;20206;-71
2022/11/24 03:07:42;;;;;;;10.77;9.68;;;;;;;7.91;70.85;93905.38;5019141;28;20274;-71
2022/11/24 03:10:09;;;;;;;11.38;9.93;;;;;;;7.90;70.97;93904.56;5036409;28;20208;-71
2022/11/24 03:12:36;;;;;;;11.48;10.35;;;;;;;7.89;70.79;93902.19;5019091;28;20210;-71
2022/11/24 03:15:03;;;;;;;12.70;10.98;;;;;;;7.87;71.16;93897.06;5019004;28;20202;-71
2022/11/24 03:17:29;;;;;;;10.65;9.57;;;;;;;7.86;71.19;93900.19;5036285;28;20201;-71
2022/11/24 03:19:58;;;;;;;11.40;10.10;;;;;;;7.89;71.06;93903.00;5036147;28;20226;-71
2022/11/24 03:22:26;;;;;;;11.43;10.32;;;;;;;7.88;70.85;93909.66;5018763;28;20203;-71
2022/11/24 03:24:53;;;;;;;10.40;9.40;;;;;;;7.88;70.35;93909.66;5035880;28;20195;-70
2022/11/24 03:27:20;;;;;;;11.68;10.48;;;;;;;7.92;70.46;93917.94;5035099;28;20190;-71
2022/11/24 03:29:47;;;;;;;12.43;11.13;;;;;;;7.89;70.61;93921.41;5036091;28;20206;-71
2022/11/24 03:32:14;;;;;;;12.88;10.90;;;;;;;7.91;70.57;93930.06;5036088;28;20226;-71
2022/11/24 03:34:40;;;;;;;10.95;9.77;;;;;;;7.89;70.68;93926.91;5036055;28;20209;-71
2022/11/24 03:37:09;;;;;;;12.52;9.77;;;;;;;7.87;70.53;93915.50;5018668;28;20528;-71
2022/11/24 03:39:36;;;;;;;10.32;9.23;;;;;;;7.80;70.60;93926.34;5035954;28;20647;-70
2022/11/24 03:42:02;;;;;;;11.00;9.90;;;;;;;7.81;71.04;93936.19;5018832;28;20198;-70
2022/11/24 03:44:29;;;;;;;10.65;9.13;;;;;;;7.82;71.03;93935.81;5018323;28;20198;-70
2022/11/24 03:46:56;;;;;;;11.07;9.90;;;;;;;7.83;71.06;93936.59;5018138;28;20611;-70
2022/11/24 03:49:23;;;;;;;11.10;9.52;;;;;;;7.84;70.90;93938.16;5035768;28;20190;-70
2022/11/24 03:51:49;;;;;;;11.15;9.40;;;;;;;7.80;71.25;93937.31;5035902;28;20206;-70
2022/11/24 03:54:18;;;;;;;11.95;10.65;;;;;;;7.72;71.10;93941.88;5035737;28;20190;-71
2022/11/24 03:56:45;;;;;;;11.18;10.05;;;;;;;7.68;71.55;93941.81;5018549;28;20211;-71
2022/11/24 03:59:12;;;;;;;12.93;10.70;;;;;;;7.70;72.17;93955.19;5035299;28;20498;-71
2022/11/24 04:01:39;;;;;;;12.88;11.02;;;;;;;7.71;72.37;93957.53;5035242;28;20256;-71
2022/11/24 04:04:06;;;;;;;12.85;11.13;;;;;;;7.74;72.26;93960.75;5035605;28;20203;-71
2022/11/24 04:06:33;;;;;;;14.60;11.23;;;;;;;7.76;71.96;93956.47;5018589;28;20197;-71
2022/11/24 04:09:00;;;;;;;13.95;11.80;;;;;;;7.78;71.61;93965.13;5018120;28;20198;-71
2022/11/24 04:14:12;;;;;;;15.35;12.52;;;;;;;7.77;71.99;93976.47;5018444;28;20199;-71
2022/11/24 04:16:39;;;;;;;15.20;13.60;;;;;;;7.79;71.90;93968.66;5018208;28;20194;-71
2022/11/24 04:19:06;;;;;;;14.85;13.25;;;;;;;7.78;71.93;93975.31;5035364;28;20187;-71
2022/11/24 04:21:33;;;;;;;16.10;12.75;;;;;;;7.72;72.44;93975.59;5014266;28;20235;-71
2022/11/24 04:23:59;;;;;;;12.23;10.52;;;;;;;7.70;72.09;93972.44;5015407;28;20199;-70
2022/11/24 04:26:28;;;;;;;11.30;10.10;;;;;;;7.74;72.17;93980.75;5030949;28;20547;-71
2022/11/24 04:28:54;;;;;;;14.13;11.23;;;;;;;7.79;71.92;93976.91;5015553;28;20187;-71
2022/11/24 04:31:21;;;;;;;14.13;12.18;;;;;;;7.79;71.79;93983.19;5015327;28;20203;-70
2022/11/24 04:33:48;;;;;;;11.70;10.48;;;;;;;7.84;71.58;93984.84;5014433;28;20199;-71
2022/11/24 04:36:15;;;;;;;12.02;10.82;;;;;;;7.82;71.60;93985.22;5015581;28;20221;-71
2022/11/24 04:38:42;;;;;;;12.98;11.48;;;;;;;7.82;71.69;93985.22;5014488;28;20202;-71
2022/11/24 04:41:09;;;;;;;12.25;10.60;;;;;;;7.84;71.85;93990.34;5014328;28;20192;-71
2022/11/24 04:43:38;;;;;;;12.23;10.85;;;;;;;7.84;71.87;93993.06;5014533;28;20261;-71
2022/11/24 04:46:04;;;;;;;10.50;9.45;;;;;;;7.85;71.60;93989.19;5015311;28;20195;-71
2022/11/24 04:48:31;;;;;;;10.52;9.20;;;;;;;7.89;72.01;93984.56;5014897;28;20262;-70
2022/11/24 04:50:58;;;;;;;11.13;9.63;;;;;;;7.88;72.16;93975.53;5014409;28;20546;-71
2022/11/24 04:53:26;;;;;;;10.95;9.32;;;;;;;7.87;71.91;93987.66;5015238;28;20261;-71
2022/11/24 04:55:52;;;;;;;11.25;9.60;;;;;;;7.89;72.25;93981.81;5014921;28;20615;-70
2022/11/24 04:58:22;;;;;;;11.80;9.13;;;;;;;7.91;72.12;93994.00;5014667;28;20206;-71
2022/11/24 05:00:50;;;;;;;11.20;8.45;;;;;;;7.94;72.38;93989.75;5014214;28;20605;-70
2022/11/24 05:03:16;;;;;;;10.55;9.55;;;;;;;7.95;72.80;93988.59;5014205;28;20220;-70
2022/11/24 05:05:45;;;;;;;11.57;10.43;;;;;;;7.91;72.96;94001.44;5015274;28;20202;-72
2022/11/24 05:08:12;;;;;;;10.32;9.32;;;;;;;7.88;72.83;94000.25;5014320;28;20207;-71
2022/11/24 05:10:39;;;;;;;10.48;9.38;;;;;;;7.90;73.00;94003.41;5014413;28;20219;-71
2022/11/24 05:13:07;;;;;;;9.85;8.82;;;;;;;7.93;73.51;94008.19;5014265;28;20302;-72
2022/11/24 05:15:34;;;;;;;14.63;9.63;;;;;;;7.94;73.11;94011.72;5014173;28;20527;-72
2022/11/24 05:18:05;;;;;;;10.15;9.02;;;;;;;7.95;73.23;94008.63;5014790;28;20210;-72
2022/11/24 05:20:33;;;;;;;9.40;8.50;;;;;;;7.98;73.25;94007.09;5014002;28;20302;-71
2022/11/24 05:23:02;;;;;;;9.73;8.82;;;;;;;7.97;73.25;94009.03;5015014;28;20191;-72
2022/11/24 05:25:29;;;;;;;10.27;8.43;;;;;;;7.96;73.10;94007.47;5014095;28;20261;-72
2022/11/24 05:27:59;;;;;;;9.85;8.68;;;;;;;7.96;73.54;94009.41;5014680;28;20203;-72
2022/11/24 05:30:26;;;;;;;10.40;9.27;;;;;;;7.97;73.39;94011.00;5013764;28;20230;-72
2022/11/24 05:32:53;;;;;;;11.18;9.63;;;;;;;7.97;73.60;94002.75;5015169;28;20187;-72
2022/11/24 05:35:22;;;;;;;13.52;9.70;;;;;;;8.02;73.55;94016.19;5013900;28;20627;-72
2022/11/24 05:37:48;;;;;;;10.02;8.75;;;;;;;8.07;72.88;94017.88;5015100;28;20256;-72
2022/11/24 05:40:16;;;;;;;10.27;8.15;;;;;;;8.09;72.80;94013.59;5014131;28;20203;-72
2022/11/24 05:42:43;;;;;;;10.82;9.10;;;;;;;8.11;72.48;94018.72;5014859;28;20207;-71
2022/11/24 05:45:11;;;;;;;9.10;8.23;;;;;;;8.13;72.39;94019.16;5014821;28;20183;-71
2022/11/24 05:47:40;;;;;;;10.85;9.18;;;;;;;8.16;72.99;94024.72;5013860;28;20199;-71
2022/11/24 05:50:08;;;;;;;11.48;8.88;;;;;;;8.20;72.51;94028.31;5015179;28;20563;-72
2022/11/24 05:52:36;;;;;;;11.25;10.02;;;;;;;8.23;72.96;94031.50;5017324;28;20198;-72
2022/11/24 05:55:04;;;;;;;12.77;9.95;;;;;;;8.15;72.97;94034.13;5017509;28;20194;-72
2022/11/24 05:57:31;;;;;;;11.75;10.65;;;;;;;8.09;73.34;94035.56;5017841;28;20661;-72
2022/11/24 05:59:58;;;;;;;18.52;16.30;;;;;;;8.07;73.55;94039.84;5016813;28;20199;-71
2022/11/24 06:02:25;;;;;;;30.25;25.27;;;;;;;8.07;73.65;94039.84;5016835;28;20651;-71
2022/11/24 06:04:51;;;;;;;32.85;27.20;;;;;;;8.09;73.55;94041.03;5018130;28;20490;-72
2022/11/24 06:07:19;;;;;;;27.90;24.75;;;;;;;8.10;72.96;94041.88;5018031;28;20190;-72
2022/11/24 06:09:47;;;;;;;28.23;24.58;;;;;;;8.08;73.31;94042.22;5017895;28;20198;-72
2022/11/24 06:12:14;;;;;;;32.20;25.50;;;;;;;8.09;73.72;94043.78;5017789;28;20237;-71
2022/11/24 06:14:41;;;;;;;26.17;23.25;;;;;;;8.11;73.66;94046.19;5017820;28;20191;-71
2022/11/24 06:17:11;;;;;;;23.33;19.80;;;;;;;8.14;73.80;94048.22;5017107;28;20257;-72
2022/11/24 06:19:37;;;;;;;22.83;19.75;;;;;;;8.16;73.44;94041.19;5020675;28;20250;-72
2022/11/24 06:22:04;;;;;;;28.38;25.33;;;;;;;8.15;73.25;94039.59;5037174;28;20567;-72
2022/11/24 06:24:31;;;;;;;32.63;29.05;;;;;;;8.12;73.68;94051.31;5037041;28;20519;-72
2022/11/24 06:26:59;;;;;;;39.53;35.25;;;;;;;8.15;73.55;94058.03;5020129;28;20558;-72
2022/11/24 06:29:26;;;;;;;37.25;33.25;;;;;;;8.12;73.94;94058.75;5019662;28;20187;-72
2022/11/24 06:31:56;;;;;;;33.90;30.10;;;;;;;8.11;73.91;94065.41;5020498;28;20211;-72
2022/11/24 06:34:25;;;;;;;31.58;27.35;;;;;;;8.08;73.98;94077.91;5019826;28;20198;-70
2022/11/24 06:36:52;;;;;;;33.38;29.90;;;;;;;8.11;73.97;94085.44;5020083;28;20209;-72
2022/11/24 06:39:19;;;;;;;49.10;44.75;;;;;;;8.11;73.41;94081.91;5019238;28;20550;-72
2022/11/24 06:41:46;;;;;;;50.88;46.08;;;;;;;8.08;73.22;94094.38;5019559;28;20619;-71
2022/11/24 06:44:14;;;;;;;32.97;29.45;;;;;;;8.13;73.39;94093.31;5019663;28;20195;-71
2022/11/24 06:46:41;;;;;;;27.67;24.77;;;;;;;8.15;73.41;94102.78;5036163;28;20202;-71
2022/11/24 06:49:08;;;;;;;30.35;25.52;;;;;;;8.18;73.47;94101.28;5019531;28;20202;-71
2022/11/24 06:51:34;;;;;;;32.92;29.38;;;;;;;8.20;73.69;94109.94;5019473;28;20221;-71
2022/11/24 06:54:02;;;;;;;28.08;24.42;;;;;;;8.16;73.24;94112.59;5019247;28;20194;-71
2022/11/24 06:56:29;;;;;;;26.70;22.27;;;;;;;8.12;73.33;94124.69;5019535;28;20209;-70
2022/11/24 06:58:56;;;;;;;30.58;25.38;;;;;;;8.06;73.66;94126.09;5018998;28;20206;-71
2022/11/24 07:01:26;;;;;;;24.77;22.15;;;;;;;7.98;73.34;94136.16;5036464;28;20194;-70
2022/11/24 07:03:54;;;;;;;22.63;20.13;;;;;;;7.87;72.75;94138.66;5019473;28;20202;-70
2022/11/24 07:06:22;;;;;;;17.77;15.98;;;;;;;7.76;73.03;94143.09;5019512;28;20195;-70
2022/11/24 07:08:50;;;;;;;15.43;13.70;;;;;;;7.78;73.06;94143.56;5036663;28;20194;-70
2022/11/24 07:11:20;;;;;;;15.55;12.95;;;;;;;7.79;72.70;94147.88;5019167;28;20272;-71
2022/11/24 07:13:47;;;;;;;17.58;14.88;;;;;;;7.79;72.91;94150.63;5036432;28;20199;-71
2022/11/24 07:16:15;;;;;;;19.23;16.65;;;;;;;7.82;72.87;94152.66;5019414;28;20527;-71
2022/11/24 07:18:44;;;;;;;18.67;16.88;;;;;;;7.81;73.00;94156.56;5019177;28;20541;-71
2022/11/24 07:21:11;;;;;;;18.23;15.40;;;;;;;7.86;72.97;94161.78;5015494;28;20242;-71
2022/11/24 07:23:39;;;;;;;17.48;15.70;;;;;;;7.88;72.83;94162.22;5015303;28;20198;-70
2022/11/24 07:26:07;;;;;;;17.70;15.65;;;;;;;7.92;73.21;94168.59;5015821;28;20207;-70
2022/11/24 07:28:33;;;;;;;16.23;14.52;;;;;;;7.95;72.88;94173.38;5015755;28;20230;-70
2022/11/24 07:31:05;;;;;;;14.40;12.20;;;;;;;8.02;73.16;94169.19;5015403;28;20226;-70
2022/11/24 07:33:32;;;;;;;11.65;10.13;;;;;;;8.03;73.30;94168.84;5015107;28;20258;-70
2022/11/24 07:36:00;;;;;;;10.93;9.82;;;;;;;8.00;72.84;94179.75;5031564;28;20195;-70
2022/11/24 07:38:28;;;;;;;10.80;9.70;;;;;;;8.01;73.16;94178.56;5015805;28;20296;-70
2022/11/24 07:40:59;;;;;;;9.82;8.80;;;;;;;8.02;73.26;94177.41;5015723;28;20203;-70
2022/11/24 07:43:26;;;;;;;8.07;7.35;;;;;;;8.01;73.82;94195.06;5014929;28;20206;-71
2022/11/24 07:45:53;;;;;;;8.07;7.38;;;;;;;8.01;73.67;94184.88;5015312;28;20222;-71
2022/11/24 07:48:20;;;;;;;8.55;7.75;;;;;;;8.04;74.00;94189.66;5016108;28;20277;-70
2022/11/24 07:50:47;;;;;;;8.20;7.50;;;;;;;8.05;73.78;94193.19;5016227;28;20282;-71
2022/11/24 07:53:16;;;;;;;8.45;7.75;;;;;;;8.01;73.70;94195.84;5016145;28;20183;-70
2022/11/24 07:55:43;;;;;;;7.88;7.28;;;;;;;7.93;73.93;94211.38;5016110;28;20546;-70
2022/11/24 07:58:10;;;;;;;8.20;7.47;;;;;;;7.94;73.98;94212.16;5015130;28;20236;-71
2022/11/24 08:00:37;;;;;;;7.55;6.95;;;;;;;7.91;73.60;94210.91;5015193;28;20188;-71
2022/11/24 08:03:04;;;;;;;7.60;6.75;;;;;;;7.89;73.24;94221.47;5015657;28;20183;-70
2022/11/24 08:05:30;;;;;;;7.15;6.55;;;;;;;7.81;73.08;94222.47;5015070;28;20612;-70
2022/11/24 08:07:59;;;;;;;6.80;6.20;;;;;;;7.71;73.24;94221.03;5015276;28;20200;-71
2022/11/24 08:10:27;;;;;;;7.65;6.95;;;;;;;7.66;73.39;94224.06;5015486;28;20203;-70
2022/11/24 08:12:54;;;;;;;8.02;7.32;;;;;;;7.68;73.23;94226.44;5014237;28;20222;-71
2022/11/24 08:15:21;;;;;;;6.78;6.18;;;;;;;7.57;73.31;94231.66;5015076;28;20206;-70
2022/11/24 08:17:48;;;;;;;7.13;6.53;;;;;;;7.56;73.35;94219.09;5014494;28;20623;-70
2022/11/24 08:20:14;;;;;;;6.60;6.00;;;;;;;7.56;73.18;94230.09;5014889;28;20253;-70
2022/11/24 08:22:41;;;;;;;6.75;6.15;;;;;;;7.56;73.38;94243.00;5014573;28;20195;-70
2022/11/24 08:25:08;;;;;;;6.65;6.05;;;;;;;7.55;72.87;94244.13;5014905;28;20221;-70
2022/11/24 08:27:38;;;;;;;6.72;6.18;;;;;;;7.52;72.88;94251.16;5014383;28;20205;-71
2022/11/24 08:30:06;;;;;;;7.32;6.72;;;;;;;7.51;72.46;94256.97;5014463;28;20210;-71
2022/11/24 08:32:33;;;;;;;8.32;7.53;;;;;;;7.46;72.78;94258.03;5014832;28;20230;-71
2022/11/24 08:35:00;;;;;;;7.88;7.10;;;;;;;7.48;72.84;94258.50;5014721;28;20234;-71
2022/11/24 08:37:28;;;;;;;8.05;7.35;;;;;;;7.46;73.00;94260.78;5014296;28;20210;-70
2022/11/24 08:39:54;;;;;;;8.05;7.25;;;;;;;7.44;72.63;94266.63;5015103;28;20195;-70
2022/11/24 08:42:21;;;;;;;7.13;6.53;;;;;;;7.39;72.62;94269.63;5014459;28;20206;-70
2022/11/24 08:44:49;;;;;;;6.28;5.78;;;;;;;7.36;72.56;94277.75;5014593;28;20203;-70
2022/11/24 08:47:16;;;;;;;6.07;5.47;;;;;;;7.36;72.43;94277.75;5014207;28;20187;-70
2022/11/24 08:49:43;;;;;;;4.35;3.95;;;;;;;7.32;72.16;94279.63;5014367;28;20249;-72
2022/11/24 08:52:10;;;;;;;5.70;5.20;;;;;;;7.33;72.29;94275.72;5014703;28;20305;-72
2022/11/24 08:54:36;;;;;;;4.20;3.90;;;;;;;7.34;71.63;94275.38;5014418;28;20611;-71
2022/11/24 08:57:04;;;;;;;4.30;3.78;;;;;;;7.30;71.40;94282.72;5014447;28;20195;-71
2022/11/24 08:59:30;;;;;;;3.97;3.55;;;;;;;7.32;71.38;94285.09;5014094;28;20191;-71
2022/11/24 09:01:58;;;;;;;3.38;3.10;;;;;;;7.32;70.98;94293.34;5014567;28;20199;-71
2022/11/24 09:04:25;;;;;;;4.35;3.17;;;;;;;7.26;70.79;94291.97;5014383;28;20215;-71
2022/11/24 09:06:52;;;;;;;3.40;3.10;;;;;;;7.23;70.60;94304.47;5014435;28;20213;-71
2022/11/24 09:09:18;;;;;;;3.83;3.45;;;;;;;7.23;70.93;94291.56;5013951;28;20211;-71
2022/11/24 09:11:45;;;;;;;2.92;2.60;;;;;;;7.21;70.20;94296.56;5014342;28;20225;-71
2022/11/24 09:14:12;;;;;;;2.90;2.70;;;;;;;7.26;70.23;94298.25;5014017;28;20270;-71
2022/11/24 09:16:39;;;;;;;2.53;2.33;;;;;;;7.27;69.60;94299.09;5014338;28;20199;-70
2022/11/24 09:19:07;;;;;;;2.60;2.40;;;;;;;7.28;69.21;94293.22;5014163;28;20195;-71
2022/11/24 09:21:36;;;;;;;3.05;2.42;;;;;;;7.28;69.49;94295.97;5013947;28;20285;-71
2022/11/24 09:24:03;;;;;;;4.95;2.40;;;;;;;7.30;69.27;94298.34;5014480;28;20213;-71
2022/11/24 09:26:32;;;;;;;2.22;2.10;;;;;;;7.26;68.65;94309.22;5017764;28;20211;-70
2022/11/24 09:29:02;;;;;;;2.17;1.98;;;;;;;7.23;68.37;94309.97;5017779;28;20199;-70
2022/11/24 09:31:30;;;;;;;3.03;2.75;;;;;;;7.25;68.30;94310.38;5017393;28;20527;-70
2022/11/24 09:33:57;;;;;;;2.22;2.05;;;;;;;7.25;68.41;94307.66;5017905;28;20627;-70
2022/11/24 09:36:25;;;;;;;2.25;2.05;;;;;;;7.30;68.30;94317.56;5017640;28;20202;-71
2022/11/24 09:38:52;;;;;;;1.80;1.70;;;;;;;7.31;68.11;94309.00;5017488;28;20213;-71
2022/11/24 09:41:35;;;;;;;1.85;1.75;;;;;;;7.38;68.03;94313.88;5017421;28;20630;-71
2022/11/24 09:44:08;;;;;;;1.88;1.77;;;;;;;7.37;67.28;94318.56;5017400;28;20195;-71
2022/11/24 09:46:41;;;;;;;3.33;1.95;;;;;;;7.28;67.32;94317.13;5017442;28;20257;-71
2022/11/24 09:49:11;;;;;;;2.88;2.30;;;;;;;7.22;67.02;94322.06;5017342;28;20203;-71
2022/11/24 09:51:41;;;;;;;3.05;2.75;;;;;;;7.18;66.92;94327.44;5016996;28;20623;-71
2022/11/24 09:54:12;;;;;;;2.22;2.00;;;;;;;7.11;66.70;94323.69;5033810;28;20533;-71
2022/11/24 09:56:40;;;;;;;1.80;1.70;;;;;;;6.96;67.02;94331.53;5017309;28;20537;-71
2022/11/24 09:59:10;;;;;;;2.08;1.88;;;;;;;6.90;67.31;94329.38;5017465;28;20210;-71
2022/11/24 10:01:41;;;;;;;2.22;1.88;;;;;;;6.91;67.64;94320.81;5016844;28;20210;-71
2022/11/24 10:04:14;;;;;;;2.65;2.20;;;;;;;6.93;67.77;94323.97;5017269;28;20195;-71
2022/11/24 10:06:47;;;;;;;2.40;2.20;;;;;;;6.95;68.00;94315.44;5017062;28;20211;-71
2022/11/24 10:09:24;;;;;;;2.63;2.42;;;;;;;6.97;67.81;94321.34;5017106;28;20195;-71
2022/11/24 10:11:58;;;;;;;3.75;2.70;;;;;;;6.96;67.62;94328.78;5016990;28;20565;-71
2022/11/24 10:14:52;;;;;;;2.88;2.17;;;;;;;6.95;67.41;94320.91;5017340;28;20237;-71
2022/11/24 10:17:30;;;;;;;2.08;1.92;;;;;;;6.87;67.33;94321.84;5016831;28;20514;-71
2022/11/24 10:20:03;;;;;;;2.38;1.80;;;;;;;6.84;67.17;94326.09;5023195;28;20234;-71
2022/11/24 10:22:41;;;;;;;1.95;1.85;;;;;;;6.72;66.19;94339.84;5020275;28;20198;-70
2022/11/24 10:25:12;;;;;;;2.20;2.00;;;;;;;6.65;66.54;94336.88;5019702;28;20248;-70
2022/11/24 10:27:43;;;;;;;2.17;2.08;;;;;;;6.60;66.99;94326.94;5019898;28;20202;-71
2022/11/24 10:30:15;;;;;;;2.45;2.10;;;;;;;6.60;66.98;94337.88;5019725;28;20201;-70
2022/11/24 10:32:46;;;;;;;2.08;1.98;;;;;;;6.62;66.63;94343.84;5037282;28;20214;-71
2022/11/24 10:35:18;;;;;;;2.30;2.20;;;;;;;6.54;66.22;94338.50;5019832;28;20260;-71
2022/11/24 10:37:52;;;;;;;2.30;2.20;;;;;;;6.61;66.36;94331.28;5036391;28;20570;-71
2022/11/24 10:40:25;;;;;;;2.20;2.10;;;;;;;6.67;65.89;94338.09;5036869;28;20182;-71
2022/11/24 10:42:52;;;;;;;2.42;2.22;;;;;;;6.66;65.18;94338.47;5019720;28;20190;-70
2022/11/24 10:45:22;;;;;;;2.83;2.00;;;;;;;6.64;65.52;94333.31;5037051;28;20194;-70
2022/11/24 10:47:50;;;;;;;2.72;2.53;;;;;;;6.70;65.12;94331.16;5037204;28;20194;-72
2022/11/24 10:50:21;;;;;;;2.80;2.60;;;;;;;6.72;65.34;94340.63;5036028;28;20205;-72
2022/11/24 10:52:56;;;;;;;3.10;2.90;;;;;;;6.71;64.83;94346.44;5019409;28;20218;-71
2022/11/24 10:55:23;;;;;;;3.40;3.10;;;;;;;6.71;64.92;94336.25;5036858;28;20190;-71
2022/11/24 10:57:49;;;;;;;2.80;2.60;;;;;;;6.71;64.61;94339.00;5037017;28;20190;-71
2022/11/24 11:00:34;;;;;;;2.83;2.63;;;;;;;6.73;64.80;94342.22;5036966;28;20194;-71
2022/11/24 11:03:15;;;;;;;3.17;2.92;;;;;;;6.78;65.30;94351.34;5036887;28;20183;-71
2022/11/24 11:05:44;;;;;;;3.03;2.83;;;;;;;6.79;65.41;94347.44;5019213;28;20213;-71
2022/11/24 11:08:21;;;;;;;3.25;2.97;;;;;;;6.82;65.43;94347.56;5036300;28;20673;-72
2022/11/24 11:10:50;;;;;;;2.67;2.47;;;;;;;6.82;65.00;94344.81;5018979;28;20205;-71
2022/11/24 11:13:25;;;;;;;3.03;2.78;;;;;;;6.80;65.34;94346.31;5036380;28;20222;-72
2022/11/24 11:15:53;;;;;;;3.35;3.05;;;;;;;6.83;65.72;94348.38;5019684;28;20205;-71
2022/11/24 11:18:21;;;;;;;3.03;2.72;;;;;;;6.88;64.45;94348.13;5036467;28;20198;-71
2022/11/24 11:20:53;;;;;;;3.38;3.17;;;;;;;6.91;64.63;94350.16;5015557;28;20312;-71
2022/11/24 11:23:27;;;;;;;3.53;3.30;;;;;;;6.92;64.26;94357.25;5015624;28;20562;-71
2022/11/24 11:26:20;;;;;;;4.28;3.50;;;;;;;6.93;64.47;94356.09;5016093;28;20206;-71
2022/11/24 11:29:00;;;;;;;3.10;2.90;;;;;;;6.87;63.49;94361.03;5016523;28;20246;-71
2022/11/24 11:31:28;;;;;;;3.60;3.30;;;;;;;6.86;63.85;94361.34;5016370;28;20199;-71
2022/11/24 11:33:57;;;;;;;3.63;3.33;;;;;;;6.84;63.31;94358.19;5015528;28;20218;-70
2022/11/24 11:36:24;;;;;;;3.13;2.88;;;;;;;6.88;63.56;94357.13;5016017;28;20603;-70
2022/11/24 11:38:52;;;;;;;3.80;3.38;;;;;;;6.88;63.37;94354.41;5015332;28;20199;-70
2022/11/24 11:41:21;;;;;;;4.20;3.80;;;;;;;6.92;63.71;94362.72;5016198;28;20604;-70
2022/11/24 11:43:52;;;;;;;4.00;3.55;;;;;;;6.87;63.00;94362.97;5016205;28;20199;-70